Time;durP1;ratioP1;P1;durP2;ratioP2;P2;SDS_P1;SDS_P2;PMS_P1;PMS_P2;Temp;Humidity;BMP_temperature;BMP_pressure;BME280_temperature;BME280_humidity;BME280_pressure;Samples;Min_cycle;Max_cycle;Signal;HPM_P1;HPM_P2
2023/07/15 00:01:48;;;;;;;3.60;1.80;;;;;;;24.42;23.45;100212.13;5008944;28;20057;-75
2023/07/15 00:04:16;;;;;;;3.65;1.70;;;;;;;24.40;23.32;100211.53;5010619;28;20509;-75
2023/07/15 00:06:45;;;;;;;2.90;1.70;;;;;;;24.38;23.32;100205.31;5020754;28;20342;-74
2023/07/15 00:09:12;;;;;;;3.05;1.95;;;;;;;24.37;23.30;100206.41;5019801;28;20062;-75
2023/07/15 00:11:42;;;;;;;3.30;1.70;;;;;;;24.37;23.55;100201.66;5024167;28;20041;-75
2023/07/15 00:14:15;;;;;;;3.67;1.70;;;;;;;24.36;23.41;100201.91;5026580;28;20037;-75
2023/07/15 00:16:43;;;;;;;3.13;1.80;;;;;;;24.33;23.49;100200.38;5020841;28;20104;-75
2023/07/15 00:19:11;;;;;;;3.03;1.90;;;;;;;24.31;23.58;100197.00;5003481;28;20050;-76
2023/07/15 00:21:40;;;;;;;3.35;1.80;;;;;;;24.31;23.40;100213.78;5021222;28;20557;-76
2023/07/15 00:24:08;;;;;;;2.88;1.80;;;;;;;24.30;23.53;100202.84;5003732;28;20041;-75
2023/07/15 00:26:36;;;;;;;3.28;1.95;;;;;;;24.28;23.75;100205.00;5000860;28;20045;-75
2023/07/15 00:29:06;;;;;;;2.58;1.67;;;;;;;24.28;23.51;100208.66;5016551;28;20034;-76
2023/07/15 00:31:36;;;;;;;3.72;1.85;;;;;;;24.27;23.80;100206.09;5026488;28;20059;-75
2023/07/15 00:34:05;;;;;;;4.18;1.90;;;;;;;24.25;23.61;100205.47;5024557;28;20033;-75
2023/07/15 00:36:33;;;;;;;3.42;1.65;;;;;;;24.23;24.04;100202.94;5026123;28;20476;-76
2023/07/15 00:39:03;;;;;;;3.30;2.00;;;;;;;24.22;23.71;100197.59;5022581;28;20046;-75
2023/07/15 00:41:34;;;;;;;3.65;1.88;;;;;;;24.21;23.54;100204.28;5008035;28;20042;-75
2023/07/15 00:44:04;;;;;;;2.97;1.87;;;;;;;24.17;23.96;100203.03;5006161;28;20375;-75
2023/07/15 00:47:03;;;;;;;2.85;1.73;;;;;;;24.18;23.82;100199.16;5022920;28;20426;-76
2023/07/15 00:49:34;;;;;;;3.40;1.92;;;;;;;24.18;23.79;100210.34;5005540;28;20117;-76
2023/07/15 00:52:04;;;;;;;3.28;1.77;;;;;;;24.16;23.78;100202.19;5006989;28;20501;-75
2023/07/15 00:54:36;;;;;;;2.70;1.75;;;;;;;24.15;23.77;100195.72;5008677;28;21272;-75
2023/07/15 00:57:07;;;;;;;4.15;1.85;;;;;;;24.12;23.62;100210.22;5011166;28;20259;-75
2023/07/15 00:59:38;;;;;;;3.40;1.90;;;;;;;24.12;23.92;100193.44;5010410;28;20117;-75
2023/07/15 01:02:09;;;;;;;3.80;1.80;;;;;;;24.10;23.91;100204.00;5007917;28;20046;-76
2023/07/15 01:04:37;;;;;;;3.00;1.80;;;;;;;24.07;24.08;100198.06;5010474;28;20034;-76
2023/07/15 01:07:05;;;;;;;3.80;1.90;;;;;;;24.06;24.02;100199.13;5012518;28;20107;-76
2023/07/15 01:09:36;;;;;;;3.60;2.00;;;;;;;24.03;24.03;100197.66;5008406;28;20038;-76
2023/07/15 01:12:05;;;;;;;3.25;1.80;;;;;;;24.04;24.08;100195.72;5009333;28;20053;-76
2023/07/15 01:14:34;;;;;;;4.13;2.10;;;;;;;24.02;23.99;100189.50;5010507;28;20130;-76
2023/07/15 01:17:03;;;;;;;3.58;1.90;;;;;;;24.00;24.16;100189.75;5007480;28;20045;-76
2023/07/15 01:19:32;;;;;;;3.22;1.90;;;;;;;24.01;23.98;100190.59;5007362;28;20534;-76
2023/07/15 01:22:02;;;;;;;3.78;2.00;;;;;;;23.98;24.28;100191.09;5010396;28;20124;-76
2023/07/15 01:24:31;;;;;;;2.90;1.80;;;;;;;23.98;24.12;100191.94;5007415;28;20042;-75
2023/07/15 01:27:01;;;;;;;3.13;1.88;;;;;;;23.96;24.24;100184.88;5025748;28;20062;-75
2023/07/15 01:29:30;;;;;;;3.00;1.80;;;;;;;23.93;24.27;100186.19;5007212;28;20072;-75
2023/07/15 01:31:57;;;;;;;3.13;1.70;;;;;;;23.93;24.23;100179.75;5009914;28;20376;-74
2023/07/15 01:34:25;;;;;;;4.55;1.95;;;;;;;23.91;24.31;100182.78;5007207;28;20453;-76
2023/07/15 01:36:54;;;;;;;3.70;2.00;;;;;;;23.89;24.34;100179.41;5006834;28;20049;-75
2023/07/15 01:39:22;;;;;;;2.67;1.80;;;;;;;23.88;24.11;100174.91;5006231;28;20060;-75
2023/07/15 01:41:51;;;;;;;4.65;2.00;;;;;;;23.90;24.29;100181.13;5009254;28;20406;-75
2023/07/15 01:44:18;;;;;;;3.30;2.00;;;;;;;23.86;24.47;100184.59;5007460;28;20147;-76
2023/07/15 01:46:49;;;;;;;3.15;2.00;;;;;;;23.85;24.42;100171.72;5006434;28;20070;-76
2023/07/15 01:49:17;;;;;;;5.68;1.95;;;;;;;23.84;24.49;100165.28;5006577;28;20046;-75
2023/07/15 01:51:45;;;;;;;2.90;1.90;;;;;;;23.84;24.26;100173.66;5008735;28;20038;-75
2023/07/15 01:54:13;;;;;;;3.67;2.03;;;;;;;23.83;24.81;100173.88;5007722;28;20050;-75
2023/07/15 01:56:42;;;;;;;2.83;1.83;;;;;;;23.82;24.49;100177.81;5011564;28;20034;-75
2023/07/15 01:59:11;;;;;;;3.70;2.17;;;;;;;23.84;24.32;100178.41;5004935;28;20128;-75
2023/07/15 02:01:41;;;;;;;2.78;1.75;;;;;;;23.82;24.52;100167.47;5022872;28;20124;-76
2023/07/15 02:04:09;;;;;;;2.95;1.67;;;;;;;23.79;24.53;100162.34;5024908;28;20517;-75
2023/07/15 02:06:37;;;;;;;5.30;2.00;;;;;;;23.79;24.66;100165.16;5006009;28;21574;-75
2023/07/15 02:09:07;;;;;;;4.25;1.92;;;;;;;23.79;24.83;100164.28;5004315;28;20045;-75
2023/07/15 02:11:36;;;;;;;3.78;1.85;;;;;;;23.79;24.51;100155.91;5007392;28;20048;-76
2023/07/15 02:14:04;;;;;;;3.75;1.92;;;;;;;23.77;24.79;100164.53;5009768;28;20116;-76
2023/07/15 02:16:33;;;;;;;4.00;2.00;;;;;;;23.79;24.77;100162.34;5007705;28;20042;-76
2023/07/15 02:19:02;;;;;;;3.53;2.03;;;;;;;23.77;24.78;100164.53;5023718;28;20302;-76
2023/07/15 02:21:30;;;;;;;3.33;2.08;;;;;;;23.77;24.76;100158.94;5008529;28;20509;-75
2023/07/15 02:23:59;;;;;;;3.88;2.05;;;;;;;23.77;24.79;100158.94;5008863;28;20038;-75
2023/07/15 02:26:27;;;;;;;5.50;2.22;;;;;;;23.76;24.87;100154.44;5005699;28;20496;-75
2023/07/15 02:28:58;;;;;;;2.80;2.00;;;;;;;23.74;24.82;100154.63;5005702;28;20034;-76
2023/07/15 02:31:26;;;;;;;3.55;1.83;;;;;;;23.75;24.99;100155.50;5009771;28;20111;-75
2023/07/15 02:33:56;;;;;;;3.60;2.00;;;;;;;23.76;24.88;100151.66;5006482;28;20054;-76
2023/07/15 02:36:23;;;;;;;3.53;2.00;;;;;;;23.73;25.13;100154.91;5008766;28;20056;-75
2023/07/15 02:38:51;;;;;;;3.22;1.98;;;;;;;23.72;25.01;100154.06;5008898;28;20038;-76
2023/07/15 02:41:19;;;;;;;4.25;1.92;;;;;;;23.71;24.99;100157.94;5006500;28;20544;-76
2023/07/15 02:43:47;;;;;;;3.60;2.20;;;;;;;23.71;25.05;100157.06;5005019;28;20089;-75
2023/07/15 02:46:15;;;;;;;3.45;2.10;;;;;;;23.70;25.17;100152.56;5005365;28;20046;-75
2023/07/15 02:48:44;;;;;;;4.25;2.20;;;;;;;23.70;25.02;100156.22;5005664;28;20050;-75
2023/07/15 02:51:13;;;;;;;2.75;1.90;;;;;;;23.71;25.13;100152.34;5006692;28;20060;-76
2023/07/15 02:53:41;;;;;;;4.63;1.88;;;;;;;23.68;24.86;100151.94;5004989;28;20177;-76
2023/07/15 02:56:09;;;;;;;3.00;2.00;;;;;;;23.67;25.07;100155.84;5023796;28;20399;-76
2023/07/15 02:58:38;;;;;;;3.60;1.90;;;;;;;23.65;25.32;100152.44;5003478;28;21365;-76
2023/07/15 03:01:07;;;;;;;3.60;2.00;;;;;;;23.64;25.16;100154.38;5003791;28;20034;-75
2023/07/15 03:03:35;;;;;;;2.90;2.00;;;;;;;23.62;25.22;100145.38;5018304;28;20042;-75
2023/07/15 03:06:04;;;;;;;3.40;2.03;;;;;;;23.63;25.51;100151.81;5022792;28;20509;-75
2023/07/15 03:08:34;;;;;;;2.97;1.98;;;;;;;23.64;25.58;100156.31;5002701;28;20145;-75
2023/07/15 03:11:02;;;;;;;4.45;2.22;;;;;;;23.60;25.56;100153.13;5005835;28;20041;-75
2023/07/15 03:13:31;;;;;;;4.20;2.28;;;;;;;23.60;25.38;100155.09;5021352;28;20123;-75
2023/07/15 03:15:59;;;;;;;3.95;2.40;;;;;;;23.59;25.67;100150.56;5020597;28;20141;-75
2023/07/15 03:18:28;;;;;;;3.15;2.15;;;;;;;23.58;25.39;100160.06;5004952;28;20131;-75
2023/07/15 03:20:57;;;;;;;4.00;2.20;;;;;;;23.56;25.41;100153.88;5004687;28;20049;-76
2023/07/15 03:23:25;;;;;;;2.95;2.00;;;;;;;23.55;25.61;100152.16;5023171;28;20092;-77
2023/07/15 03:25:54;;;;;;;3.90;2.20;;;;;;;23.55;25.55;100150.22;5002328;28;20042;-75
2023/07/15 03:28:23;;;;;;;3.05;1.80;;;;;;;23.52;25.61;100161.84;5004024;28;20110;-76
2023/07/15 03:30:52;;;;;;;3.67;1.92;;;;;;;23.50;25.65;100158.44;5003195;28;20050;-76
2023/07/15 03:33:20;;;;;;;4.13;2.20;;;;;;;23.49;25.40;100156.75;5005156;28;20053;-75
2023/07/15 03:35:47;;;;;;;3.75;2.20;;;;;;;23.48;25.34;100151.41;5005613;28;20052;-75
2023/07/15 03:38:15;;;;;;;2.83;1.80;;;;;;;23.47;25.40;100155.28;5008120;28;20038;-75
2023/07/15 03:40:43;;;;;;;3.40;2.00;;;;;;;23.46;25.66;100150.78;5004835;28;20502;-75
2023/07/15 03:43:12;;;;;;;3.75;2.30;;;;;;;23.47;25.60;100149.69;5006686;28;20525;-75
2023/07/15 03:45:40;;;;;;;3.80;1.83;;;;;;;23.44;25.65;100150.16;5006283;28;20135;-76
2023/07/15 03:48:08;;;;;;;3.60;1.90;;;;;;;23.42;25.46;100155.13;5006894;28;20099;-74
2023/07/15 03:50:36;;;;;;;3.55;2.20;;;;;;;23.42;25.36;100153.19;5022229;28;20132;-76
2023/07/15 03:53:04;;;;;;;3.58;2.00;;;;;;;23.40;25.82;100158.16;5001983;28;20038;-76
2023/07/15 03:55:32;;;;;;;3.28;1.90;;;;;;;23.39;25.83;100160.09;5007258;28;20057;-76
2023/07/15 03:58:00;;;;;;;4.13;1.88;;;;;;;23.38;25.85;100158.41;5005827;28;20065;-75
2023/07/15 04:00:29;;;;;;;3.03;1.70;;;;;;;23.41;25.98;100157.09;5000019;28;20061;-75
2023/07/15 04:02:57;;;;;;;3.83;2.25;;;;;;;23.38;25.96;100149.16;5006326;28;20041;-75
2023/07/15 04:05:25;;;;;;;4.18;2.00;;;;;;;23.36;25.55;100149.41;4999900;28;20448;-74
2023/07/15 04:07:53;;;;;;;4.15;2.15;;;;;;;23.36;26.06;100157.78;5008347;28;20038;-75
2023/07/15 04:10:21;;;;;;;3.72;2.03;;;;;;;23.35;26.01;100156.06;5004175;28;20050;-74
2023/07/15 04:12:49;;;;;;;3.45;1.85;;;;;;;23.34;26.09;100151.56;5004204;28;20129;-76
2023/07/15 04:15:17;;;;;;;3.67;2.00;;;;;;;23.35;26.14;100152.41;5004259;28;20075;-76
2023/07/15 04:17:46;;;;;;;4.65;2.10;;;;;;;23.36;26.16;100149.41;5005322;28;20556;-76
2023/07/15 04:20:15;;;;;;;3.33;1.80;;;;;;;23.35;25.99;100149.63;5003146;28;20049;-76
2023/07/15 04:22:43;;;;;;;2.92;1.95;;;;;;;23.34;26.07;100151.56;5019168;28;20074;-80
2023/07/15 04:25:12;;;;;;;2.67;1.90;;;;;;;23.35;26.16;100142.09;5007717;28;20034;-80
2023/07/15 04:27:40;;;;;;;3.65;2.17;;;;;;;23.35;25.97;100144.03;5010015;28;20042;-80
2023/07/15 04:30:10;;;;;;;3.45;1.85;;;;;;;23.38;26.00;100138.00;5006901;28;20146;-80
2023/07/15 04:32:38;;;;;;;3.35;2.10;;;;;;;23.36;26.09;100148.53;5013435;28;20402;-81
2023/07/15 04:35:07;;;;;;;3.45;2.08;;;;;;;23.38;26.24;100144.44;5018058;28;20116;-80
2023/07/15 04:37:37;;;;;;;3.42;2.08;;;;;;;23.37;26.28;100145.53;5029552;28;20073;-79
2023/07/15 04:40:07;;;;;;;3.00;1.90;;;;;;;23.38;26.13;100138.84;5044515;28;20046;-79
2023/07/15 04:42:35;;;;;;;3.25;2.20;;;;;;;23.36;26.11;100135.44;5025318;28;20046;-80
2023/07/15 04:45:03;;;;;;;2.55;1.70;;;;;;;23.36;26.16;100143.81;5011085;28;20062;-79
2023/07/15 04:47:31;;;;;;;4.30;1.90;;;;;;;23.36;26.19;100140.16;5025814;28;20050;-80
2023/07/15 04:49:59;;;;;;;4.07;1.88;;;;;;;23.34;26.20;100143.19;5010418;28;20037;-79
2023/07/15 04:52:28;;;;;;;3.85;1.80;;;;;;;23.36;25.99;100151.34;5028880;28;20046;-81
2023/07/15 04:54:56;;;;;;;3.60;2.00;;;;;;;23.33;26.08;100149.84;5014297;28;20061;-81
2023/07/15 04:57:24;;;;;;;4.95;2.05;;;;;;;23.33;26.29;100154.63;5013868;28;20038;-76
2023/07/15 04:59:53;;;;;;;3.00;1.90;;;;;;;23.35;26.40;100158.00;5010731;28;20540;-75
2023/07/15 05:02:22;;;;;;;3.88;2.00;;;;;;;23.35;26.41;100166.38;5012173;28;20125;-75
2023/07/15 05:04:50;;;;;;;4.20;2.17;;;;;;;23.32;26.55;100170.53;5024346;28;20054;-76
2023/07/15 05:07:18;;;;;;;4.32;2.20;;;;;;;23.33;26.92;100166.63;5001168;28;20073;-76
2023/07/15 05:09:49;;;;;;;5.00;1.92;;;;;;;23.36;26.50;100165.31;5007689;28;20515;-76
2023/07/15 05:12:17;;;;;;;3.95;1.90;;;;;;;23.36;26.91;100168.09;5007413;28;20054;-76
2023/07/15 05:14:45;;;;;;;3.58;1.95;;;;;;;23.38;27.01;100172.38;5009021;28;20048;-76
2023/07/15 05:17:12;;;;;;;2.58;1.70;;;;;;;23.42;27.01;100158.75;5011606;28;20425;-76
2023/07/15 05:19:40;;;;;;;4.20;2.30;;;;;;;23.48;27.17;100159.78;5003907;28;20439;-76
2023/07/15 05:22:08;;;;;;;3.53;2.08;;;;;;;23.55;26.97;100161.38;5011172;28;20073;-76
2023/07/15 05:24:36;;;;;;;2.55;1.67;;;;;;;23.63;27.33;100158.25;5026396;28;20577;-75
2023/07/15 05:27:06;;;;;;;4.32;2.10;;;;;;;23.76;27.10;100152.50;5022662;28;20045;-75
2023/07/15 05:29:33;;;;;;;3.90;2.00;;;;;;;23.83;27.07;100155.19;5011256;28;20045;-76
2023/07/15 05:32:01;;;;;;;3.38;1.88;;;;;;;23.96;27.17;100157.78;5010607;28;20037;-76
2023/07/15 05:34:29;;;;;;;3.22;2.00;;;;;;;24.08;27.05;100169.84;5004341;28;20422;-76
2023/07/15 05:36:57;;;;;;;4.35;1.90;;;;;;;24.19;26.81;100156.97;5008886;28;20136;-76
2023/07/15 05:39:25;;;;;;;3.83;1.88;;;;;;;24.33;26.95;100160.38;5008839;28;20128;-76
2023/07/15 05:41:53;;;;;;;4.18;2.13;;;;;;;24.45;26.68;100158.50;5006788;28;20044;-76
2023/07/15 05:44:22;;;;;;;2.95;1.60;;;;;;;24.61;26.54;100162.50;5011727;28;20359;-76
2023/07/15 05:46:49;;;;;;;3.13;1.80;;;;;;;24.71;26.65;100152.41;5027310;28;20038;-77
2023/07/15 05:49:17;;;;;;;3.50;1.77;;;;;;;24.83;26.44;100156.03;5030160;28;20073;-76
2023/07/15 05:51:45;;;;;;;3.30;1.80;;;;;;;24.97;26.27;100153.03;5018502;28;20431;-76
2023/07/15 05:54:13;;;;;;;3.85;1.60;;;;;;;25.09;26.47;100159.44;5012416;28;20148;-76
2023/07/15 05:56:41;;;;;;;2.70;1.60;;;;;;;25.22;26.04;100150.78;5025553;28;20371;-75
2023/07/15 05:59:09;;;;;;;2.75;1.67;;;;;;;25.33;26.00;100152.66;5009512;28;20054;-76
2023/07/15 06:01:38;;;;;;;2.67;1.58;;;;;;;25.47;25.77;100151.25;5033848;28;20049;-76
2023/07/15 06:04:07;;;;;;;3.60;1.67;;;;;;;25.59;25.69;100162.47;5030405;28;20296;-76
2023/07/15 06:06:35;;;;;;;3.08;1.80;;;;;;;25.70;25.69;100155.13;5016955;28;20379;-76
2023/07/15 06:09:03;;;;;;;3.28;1.80;;;;;;;25.81;25.72;100151.38;5009810;28;20053;-76
2023/07/15 06:11:31;;;;;;;3.53;1.88;;;;;;;25.93;25.42;100163.41;5026466;28;20049;-76
2023/07/15 06:14:03;;;;;;;2.35;1.50;;;;;;;26.05;25.52;100155.75;5007819;28;20117;-76
2023/07/15 06:16:31;;;;;;;2.90;1.67;;;;;;;26.14;25.23;100154.25;5030156;28;20041;-76
2023/07/15 06:19:00;;;;;;;2.63;1.50;;;;;;;26.30;24.82;100163.78;5011711;28;20125;-75
2023/07/15 06:21:28;;;;;;;2.90;1.77;;;;;;;26.39;25.04;100167.84;5014076;28;20119;-75
2023/07/15 06:23:56;;;;;;;2.88;1.60;;;;;;;26.49;24.84;100179.25;5025390;28;20046;-76
2023/07/15 06:26:23;;;;;;;3.45;1.88;;;;;;;26.58;24.85;100179.69;5009170;28;20034;-75
2023/07/15 06:28:51;;;;;;;3.40;1.52;;;;;;;26.66;24.49;100185.75;5011130;28;20126;-75
2023/07/15 06:31:19;;;;;;;3.40;1.70;;;;;;;26.74;24.55;100173.22;5026786;28;20409;-76
2023/07/15 06:33:48;;;;;;;3.20;1.63;;;;;;;26.83;24.56;100160.44;5017945;28;20084;-76
2023/07/15 06:36:17;;;;;;;2.50;1.60;;;;;;;26.92;24.38;100172.94;5026342;28;20041;-76
2023/07/15 06:38:45;;;;;;;2.33;1.50;;;;;;;26.99;24.47;100186.78;5025196;28;20128;-76
2023/07/15 06:41:13;;;;;;;2.22;1.70;;;;;;;27.05;24.17;100177.31;5029291;28;20117;-76
2023/07/15 06:43:43;;;;;;;2.20;1.40;;;;;;;27.12;23.68;100175.19;5030104;28;20121;-76
2023/07/15 06:46:11;;;;;;;3.38;1.50;;;;;;;27.18;23.68;100173.31;5029498;28;20041;-75
2023/07/15 06:48:39;;;;;;;2.83;1.60;;;;;;;27.21;23.67;100184.03;5022341;28;20069;-76
2023/07/15 06:51:06;;;;;;;4.40;1.80;;;;;;;27.24;23.82;100191.94;5023502;28;20072;-76
2023/07/15 06:53:36;;;;;;;2.90;1.70;;;;;;;27.28;23.37;100195.94;5010079;28;20053;-75
2023/07/15 06:56:04;;;;;;;2.50;1.60;;;;;;;27.28;23.45;100184.69;5029070;28;20139;-76
2023/07/15 06:58:46;;;;;;;2.72;1.70;;;;;;;27.27;23.49;100180.19;5027010;28;20513;-76
2023/07/15 07:01:14;;;;;;;2.47;1.58;;;;;;;27.29;23.50;100169.50;5028068;28;20123;-75
2023/07/15 07:03:44;;;;;;;2.83;1.75;;;;;;;27.27;23.44;100172.63;5016372;28;20072;-75
2023/07/15 07:06:13;;;;;;;3.15;1.60;;;;;;;27.28;23.09;100167.84;5012415;28;20053;-76
2023/07/15 07:08:42;;;;;;;3.00;1.60;;;;;;;27.30;22.99;100171.22;5019408;28;20041;-76
2023/07/15 07:11:10;;;;;;;2.83;1.63;;;;;;;27.26;23.36;100176.53;5005472;28;20506;-75
2023/07/15 07:13:39;;;;;;;3.15;1.50;;;;;;;27.24;23.44;100172.28;5028217;28;20041;-75
2023/07/15 07:16:06;;;;;;;3.28;1.67;;;;;;;27.21;23.41;100179.25;5032148;28;20037;-77
2023/07/15 07:18:34;;;;;;;2.50;1.50;;;;;;;27.20;23.18;100188.81;5024605;28;20048;-76
2023/07/15 07:21:02;;;;;;;3.00;1.70;;;;;;;27.17;23.38;100194.09;5024105;28;20079;-76
2023/07/15 07:23:30;;;;;;;2.92;1.45;;;;;;;27.13;23.02;100186.16;5029774;28;20117;-76
2023/07/15 07:26:00;;;;;;;3.25;1.30;;;;;;;27.12;23.31;100178.00;5022476;28;20095;-77
2023/07/15 07:28:41;;;;;;;2.63;1.52;;;;;;;27.08;23.30;100179.63;5026688;28;20053;-75
2023/07/15 07:31:10;;;;;;;4.32;1.65;;;;;;;27.00;23.23;100185.69;5023960;28;20042;-76
2023/07/15 07:33:39;;;;;;;3.13;1.60;;;;;;;26.97;23.49;100174.97;5015937;28;20387;-77
2023/07/15 07:36:07;;;;;;;2.63;1.50;;;;;;;26.92;23.51;100172.09;5019792;28;20506;-77
2023/07/15 07:38:35;;;;;;;2.45;1.40;;;;;;;26.88;23.51;100187.75;5023787;28;20137;-77
2023/07/15 07:41:09;;;;;;;2.08;1.40;;;;;;;26.86;23.42;100181.56;5009171;28;20528;-77
2023/07/15 07:43:38;;;;;;;2.13;1.50;;;;;;;26.79;23.42;100187.34;5007520;28;20145;-77
2023/07/15 07:46:07;;;;;;;2.47;1.40;;;;;;;26.75;23.63;100195.44;5004684;28;20037;-77
2023/07/15 07:48:35;;;;;;;2.53;1.58;;;;;;;26.71;23.61;100197.03;5015764;28;20058;-77
2023/07/15 07:51:03;;;;;;;2.33;1.50;;;;;;;26.68;24.00;100205.13;5012825;28;20092;-77
2023/07/15 07:53:32;;;;;;;3.28;1.58;;;;;;;26.64;24.05;100204.78;5008048;28;20042;-77
2023/07/15 07:55:59;;;;;;;3.22;1.60;;;;;;;26.61;23.63;100202.50;5009400;28;20062;-77
2023/07/15 07:58:29;;;;;;;3.00;1.60;;;;;;;26.60;23.76;100205.53;5008921;28;20505;-77
2023/07/15 08:00:57;;;;;;;3.15;1.63;;;;;;;26.56;23.97;100215.56;5009309;28;20217;-76
2023/07/15 08:03:25;;;;;;;2.60;1.55;;;;;;;26.52;23.84;100218.03;5010349;28;20120;-77
2023/07/15 08:05:53;;;;;;;2.90;1.67;;;;;;;26.49;24.20;100223.31;5017211;28;20042;-78
2023/07/15 08:08:21;;;;;;;2.17;1.45;;;;;;;26.45;24.26;100225.78;5027187;28;20042;-77
2023/07/15 08:10:49;;;;;;;2.63;1.50;;;;;;;26.44;23.91;100231.66;5018048;28;20520;-77
2023/07/15 08:13:16;;;;;;;3.13;1.52;;;;;;;26.41;24.29;100229.34;5017324;28;20080;-77
2023/07/15 08:15:46;;;;;;;3.30;1.80;;;;;;;26.41;24.52;100221.78;5014636;28;20042;-77
2023/07/15 08:18:14;;;;;;;2.55;1.70;;;;;;;26.36;24.72;100219.75;5015005;28;20521;-77
2023/07/15 08:20:42;;;;;;;2.78;1.63;;;;;;;26.34;24.64;100213.53;5009955;28;20100;-77
2023/07/15 08:23:10;;;;;;;3.67;1.60;;;;;;;26.32;24.68;100210.13;5027806;28;20042;-77
2023/07/15 08:25:38;;;;;;;2.72;1.48;;;;;;;26.29;24.87;100224.69;5010329;28;20045;-78
2023/07/15 08:28:07;;;;;;;3.53;1.50;;;;;;;26.27;24.94;100226.03;5012324;28;20042;-77
2023/07/15 08:30:36;;;;;;;2.92;1.60;;;;;;;26.25;24.82;100239.44;5010193;28;20049;-76
2023/07/15 08:33:07;;;;;;;2.97;1.42;;;;;;;26.25;24.98;100247.84;5010346;28;20137;-77
2023/07/15 08:35:35;;;;;;;3.95;1.90;;;;;;;26.20;25.15;100262.66;5012774;28;20514;-76
2023/07/15 08:38:03;;;;;;;3.00;1.70;;;;;;;26.19;25.13;100274.13;5012420;28;20125;-76
2023/07/15 08:40:34;;;;;;;2.40;1.40;;;;;;;26.17;25.28;100276.31;5012965;28;20038;-78
2023/07/15 08:43:04;;;;;;;3.80;1.77;;;;;;;26.12;25.24;100279.88;5008354;28;20108;-77
2023/07/15 08:45:35;;;;;;;2.92;1.63;;;;;;;26.14;25.42;100291.69;5012612;28;20110;-77
2023/07/15 08:48:03;;;;;;;2.80;1.50;;;;;;;26.08;25.70;100278.66;5011790;28;20045;-77
2023/07/15 08:50:35;;;;;;;2.05;1.40;;;;;;;26.10;26.04;100286.84;5011421;28;20041;-77
2023/07/15 08:53:04;;;;;;;2.40;1.40;;;;;;;26.06;25.87;100285.59;5013455;28;20066;-77
2023/07/15 08:55:32;;;;;;;2.95;1.60;;;;;;;26.01;26.88;100297.56;5014344;28;20065;-77
2023/07/15 08:58:03;;;;;;;3.40;1.42;;;;;;;25.99;27.46;100316.59;5014920;28;20401;-78
2023/07/15 09:00:32;;;;;;;3.22;1.60;;;;;;;25.94;27.78;100345.38;5017320;28;20464;-79
2023/07/15 09:03:00;;;;;;;2.75;1.40;;;;;;;25.89;28.96;100369.66;5021275;28;20042;-77
2023/07/15 09:05:29;;;;;;;3.05;1.33;;;;;;;25.83;29.64;100371.50;5019715;28;20034;-79
2023/07/15 09:07:59;;;;;;;3.35;1.50;;;;;;;25.77;30.97;100380.03;5017211;28;20486;-77
2023/07/15 09:10:28;;;;;;;3.58;1.70;;;;;;;25.65;30.63;100368.84;5036752;28;20061;-79
2023/07/15 09:12:56;;;;;;;4.85;1.92;;;;;;;25.53;31.43;100368.00;5014002;28;20400;-77
2023/07/15 09:15:24;;;;;;;3.40;1.60;;;;;;;25.42;31.63;100357.63;5012961;28;20552;-78
2023/07/15 09:17:54;;;;;;;2.15;1.30;;;;;;;25.30;31.59;100363.25;5012523;28;20547;-77
2023/07/15 09:20:23;;;;;;;2.50;1.30;;;;;;;25.17;32.18;100385.88;5006060;28;20042;-76
2023/07/15 09:22:54;;;;;;;2.83;1.60;;;;;;;25.02;32.69;100386.34;5027301;28;20080;-76
2023/07/15 09:25:24;;;;;;;2.65;1.50;;;;;;;24.93;33.39;100392.50;5017738;28;20077;-81
2023/07/15 09:27:55;;;;;;;4.80;1.80;;;;;;;24.76;34.23;100382.00;5023473;28;20493;-82
2023/07/15 09:30:24;;;;;;;2.70;1.50;;;;;;;24.60;34.80;100402.25;5025442;28;20077;-82
2023/07/15 09:32:51;;;;;;;3.95;1.70;;;;;;;24.41;34.91;100411.78;5051493;28;20041;-84
2023/07/15 09:35:20;;;;;;;3.03;1.80;;;;;;;24.23;35.77;100393.09;5030656;28;20037;-84
2023/07/15 09:37:49;;;;;;;3.20;1.90;;;;;;;24.04;36.12;100386.66;5040050;28;20445;-82
2023/07/15 09:40:18;;;;;;;2.92;1.60;;;;;;;23.88;36.94;100387.28;5038157;28;20057;-84
2023/07/15 09:42:53;;;;;;;3.63;1.60;;;;;;;23.75;39.02;100374.28;5039073;28;20113;-82
2023/07/15 09:45:32;;;;;;;3.35;1.90;;;;;;;23.59;39.43;100358.13;5036657;28;20440;-83
2023/07/15 09:48:01;;;;;;;3.95;2.10;;;;;;;23.42;37.96;100358.97;5035891;28;20041;-83
2023/07/15 09:50:29;;;;;;;3.83;2.00;;;;;;;23.32;38.49;100356.75;5040509;28;20037;-81
2023/07/15 09:52:59;;;;;;;2.88;1.88;;;;;;;23.23;38.70;100352.53;5061630;28;20037;-81
2023/07/15 09:55:28;;;;;;;5.90;2.00;;;;;;;23.10;39.63;100342.31;5027184;28;20042;-82
2023/07/15 09:58:05;;;;;;;3.95;2.17;;;;;;;23.01;42.61;100330.56;5035333;28;20049;-82
2023/07/15 10:00:35;;;;;;;3.10;1.80;;;;;;;22.94;40.13;100331.72;5031611;28;20045;-83
2023/07/15 10:03:04;;;;;;;3.65;2.00;;;;;;;22.83;40.24;100315.75;5030472;28;20056;-82
2023/07/15 10:05:33;;;;;;;3.70;1.90;;;;;;;22.77;40.96;100314.69;5031565;28;20529;-81
2023/07/15 10:08:02;;;;;;;3.88;2.30;;;;;;;22.73;40.81;100313.47;5031399;28;20041;-81
2023/07/15 10:10:51;;;;;;;4.47;2.40;;;;;;;22.69;41.57;100306.59;5014294;28;20086;-82
2023/07/15 10:13:24;;;;;;;4.38;2.10;;;;;;;22.63;41.62;100308.38;5041973;28;20057;-82
2023/07/15 10:15:52;;;;;;;5.60;2.65;;;;;;;22.58;41.63;100299.84;5030122;28;20045;-82
2023/07/15 10:18:22;;;;;;;3.50;2.38;;;;;;;22.56;41.75;100307.59;5031952;28;20045;-82
2023/07/15 10:20:55;;;;;;;4.18;2.47;;;;;;;22.53;42.43;100302.44;5028848;28;20042;-82
2023/07/15 10:23:28;;;;;;;4.43;2.25;;;;;;;22.54;43.28;100303.31;5020811;28;20073;-82
2023/07/15 10:26:06;;;;;;;;;;;;;;;22.19;44.42;100289.78;5011907;28;20070;-82
2023/07/15 10:29:05;;;;;;;4.80;2.20;;;;;;;22.45;43.94;100297.13;5045867;28;20188;-82
2023/07/15 10:31:33;;;;;;;4.10;2.03;;;;;;;22.42;42.30;100314.31;5035233;28;20050;-82
2023/07/15 10:34:05;;;;;;;3.97;2.42;;;;;;;22.46;43.11;100298.81;5040045;28;20128;-83
2023/07/15 10:36:38;;;;;;;4.30;2.53;;;;;;;22.43;44.23;100299.28;5038772;28;20358;-82
2023/07/15 10:39:14;;;;;;;5.03;2.30;;;;;;;22.45;44.06;100318.56;5038931;28;20049;-82
2023/07/15 10:41:44;;;;;;;4.50;2.13;;;;;;;22.42;43.00;100314.31;5038003;28;20056;-82
2023/07/15 10:44:20;;;;;;;3.55;2.30;;;;;;;22.44;44.52;100309.34;5040269;28;20038;-80
2023/07/15 10:46:51;;;;;;;2.90;1.90;;;;;;;22.41;42.99;100308.97;5041834;28;20073;-80
2023/07/15 10:50:17;;;;;;;3.83;2.30;;;;;;;22.39;45.11;100320.34;5054694;28;20052;-81
2023/07/15 10:52:45;;;;;;;4.00;2.10;;;;;;;22.41;43.50;100317.31;5021015;28;20099;-81
2023/07/15 10:55:13;;;;;;;3.40;1.90;;;;;;;22.43;43.19;100326.28;5030138;28;20037;-81
2023/07/15 10:58:02;;;;;;;3.55;2.20;;;;;;;22.45;44.63;100332.50;5013183;28;20110;-82
2023/07/15 11:00:33;;;;;;;4.22;2.08;;;;;;;22.44;44.00;100337.22;5028344;28;20057;-82
2023/07/15 11:03:01;;;;;;;3.53;2.25;;;;;;;22.44;43.51;100328.00;5035362;28;20072;-80
2023/07/15 11:05:30;;;;;;;5.13;2.55;;;;;;;22.43;43.87;100334.66;5032979;28;20040;-81
2023/07/15 11:07:59;;;;;;;3.97;2.40;;;;;;;22.44;43.85;100331.66;5036252;28;20101;-82
2023/07/15 11:10:33;;;;;;;4.55;2.50;;;;;;;22.46;45.79;100343.44;5031967;28;20099;-81
2023/07/15 11:13:11;;;;;;;3.85;2.58;;;;;;;22.45;45.61;100340.88;5032564;28;20042;-81
2023/07/15 11:15:41;;;;;;;4.30;2.55;;;;;;;22.45;44.63;100352.03;5023176;28;20379;-82
2023/07/15 11:18:16;;;;;;;5.03;2.50;;;;;;;22.46;46.35;100353.75;5017756;28;20045;-81
2023/07/15 11:20:45;;;;;;;4.13;2.03;;;;;;;22.40;44.64;100352.72;5032203;28;20555;-80
2023/07/15 11:23:17;;;;;;;4.00;2.33;;;;;;;22.42;44.86;100364.50;5033525;28;20409;-80
2023/07/15 11:25:46;;;;;;;3.72;2.10;;;;;;;22.44;44.96;100359.53;5010367;28;20042;-81
2023/07/15 11:28:14;;;;;;;4.70;2.10;;;;;;;22.46;45.39;100337.88;5028659;28;20045;-82
2023/07/15 11:30:45;;;;;;;4.20;2.25;;;;;;;22.49;45.32;100342.16;5043428;28;20042;-82
2023/07/15 11:33:14;;;;;;;4.50;2.40;;;;;;;22.48;45.19;100341.28;5020699;28;20072;-82
2023/07/15 11:35:43;;;;;;;3.13;1.98;;;;;;;22.52;44.88;100319.38;5053318;28;20060;-81